Portada
METAR-TAF:

METAR-TAF

Aeroports :

Mataram, Indonèsia

latitud: 08-45-29S, longitud: 116-16-35E, altitud: 97 m

Observació

L'informe es va fer fa 19 minuts, a les 11:30 UTC
Vent 6 kt del Sud/Sud-Est
Temperatura 26°C
Humitat 79%
Pressió 1011 hPa
Visibilitat: 8000 m
Escasses núvols a una alçada de 1600 ft

METAR: WADL 251130Z 15006KT 8000 FEW016 26/22 Q1011 NOSIG

Hora: 18:49 (11:49 UTC)

Pronòstic

L'informe es va fer fa 49 minuts, a les 11:00 UTC
Pronòstic vàlid del 25 a les 12 UTC al 26 a les 12 UTC
Vent 5 kt del Sud/Sud-Est
Visibilitat: 7000 m
Núvols disperses a una alçada de 1600 ft

TAF: WADL 251100Z 2512/2612 16005KT 7000 SCT016

Observacions i pronòstics meteorològics de més de 4000 aeroports (METAR i TAF).

Les estacions disponibles són els punts grocs i vermells al mapa.

Posi el ratolí al punt desitjat per veure el nom de l'estació.

Feu clic per veure les observacions i els pronòstics meteorològics.

Per canviar el mapa: feu clic els botons verds amb una creu de color negre per apropar; al botó verd amb un guió per allunyar la imatge; o en les fletxes verdes per a mapes adjacents.


METAR-TAF: